createdAt,value
2019-01-30T00:00:21.393Z,28.57
2019-01-30T00:02:53.879Z,23.98
2019-01-30T00:05:26.375Z,27.45
2019-01-30T00:07:58.839Z,30.05
2019-01-30T00:10:31.723Z,30.82
2019-01-30T00:13:04.218Z,31.00
2019-01-30T00:15:36.771Z,27.25
2019-01-30T00:18:08.320Z,29.85
2019-01-30T00:20:40.827Z,23.73
2019-01-30T00:23:13.286Z,28.47
2019-01-30T00:25:45.826Z,30.80
2019-01-30T00:28:18.278Z,31.07
2019-01-30T00:30:50.849Z,25.68
2019-01-30T00:33:23.408Z,37.03
2019-01-30T00:35:55.914Z,28.15
2019-01-30T00:38:28.412Z,31.73
2019-01-30T00:41:00.910Z,38.08
2019-01-30T00:43:33.411Z,38.00
2019-01-30T00:46:06.021Z,37.93
2019-01-30T00:48:38.534Z,47.15
2019-01-30T00:51:11.103Z,46.18
2019-01-30T00:53:43.577Z,34.67
2019-01-30T00:56:16.069Z,33.55
2019-01-30T00:58:48.551Z,34.80
2019-01-30T01:01:21.036Z,45.88
2019-01-30T01:03:53.576Z,35.55
2019-01-30T01:06:26.095Z,30.97
2019-01-30T01:08:58.631Z,29.77
2019-01-30T01:11:31.096Z,33.00
2019-01-30T01:14:03.696Z,27.98
2019-01-30T01:16:36.180Z,31.10
2019-01-30T01:19:08.780Z,35.33
2019-01-30T01:21:41.425Z,24.65
2019-01-30T01:24:13.926Z,34.83
2019-01-30T01:26:46.394Z,27.15
2019-01-30T01:29:18.872Z,32.90
2019-01-30T01:31:51.429Z,28.83
2019-01-30T01:34:23.915Z,31.02
2019-01-30T01:36:57.415Z,23.95
2019-01-30T01:39:29.939Z,29.07
2019-01-30T01:42:02.443Z,25.68
2019-01-30T01:44:34.956Z,29.52
2019-01-30T01:47:07.459Z,28.50
2019-01-30T01:49:39.960Z,25.00
2019-01-30T01:52:12.528Z,23.98
2019-01-30T01:54:45.039Z,23.30
2019-01-30T01:57:17.543Z,30.27
2019-01-30T01:59:50.031Z,20.02
2019-01-30T02:02:22.554Z,30.08
2019-01-30T02:04:55.001Z,30.45
2019-01-30T02:07:27.567Z,28.20
2019-01-30T02:10:00.371Z,26.30
2019-01-30T02:12:32.831Z,25.17
2019-01-30T02:15:05.387Z,27.82
2019-01-30T02:17:37.912Z,30.27
2019-01-30T02:20:12.517Z,26.57
2019-01-30T02:22:45.057Z,32.58
2019-01-30T02:25:17.540Z,30.23
2019-01-30T02:27:50.081Z,28.87
2019-01-30T02:30:23.950Z,24.52
2019-01-30T02:32:57.060Z,40.15
2019-01-30T02:35:29.509Z,40.20
2019-01-30T02:38:02.058Z,36.40
2019-01-30T02:40:34.549Z,38.33
2019-01-30T02:43:07.045Z,38.70
2019-01-30T02:45:39.550Z,31.27
2019-01-30T02:48:12.120Z,24.15
2019-01-30T02:50:44.626Z,23.98
2019-01-30T02:53:16.098Z,29.67
2019-01-30T02:55:48.643Z,23.85
2019-01-30T02:58:20.183Z,26.00
2019-01-30T03:00:59.317Z,25.23
2019-01-30T03:03:26.348Z,35.28
2019-01-30T03:05:58.840Z,27.98
2019-01-30T03:08:31.408Z,30.52
2019-01-30T03:11:04.230Z,27.40
2019-01-30T03:13:36.776Z,20.32
2019-01-30T03:16:09.272Z,25.30
2019-01-30T03:18:41.885Z,32.20
2019-01-30T03:21:14.359Z,24.12
2019-01-30T03:23:46.970Z,27.62
2019-01-30T03:26:19.560Z,29.67
2019-01-30T03:28:52.184Z,20.70
2019-01-30T03:31:24.687Z,23.25
2019-01-30T03:33:57.206Z,23.62
2019-01-30T03:36:29.705Z,26.87
2019-01-30T03:39:02.231Z,21.73
2019-01-30T03:41:34.730Z,26.75
2019-01-30T03:44:07.338Z,22.58
2019-01-30T03:46:39.832Z,26.90
2019-01-30T03:49:12.438Z,21.65
2019-01-30T03:51:44.933Z,21.30
2019-01-30T03:54:17.775Z,26.93
2019-01-30T03:56:50.216Z,25.82
2019-01-30T03:59:22.859Z,28.23
2019-01-30T04:01:56.449Z,21.55
2019-01-30T04:04:28.958Z,20.10
2019-01-30T04:07:01.451Z,23.10
2019-01-30T04:09:33.963Z,22.77
2019-01-30T04:12:06.458Z,22.32
2019-01-30T04:14:38.960Z,19.07
2019-01-30T04:17:11.450Z,21.12
2019-01-30T04:19:43.972Z,21.02
2019-01-30T04:22:16.426Z,20.08
2019-01-30T04:24:48.928Z,27.00
2019-01-30T04:27:21.465Z,30.40
2019-01-30T04:29:53.930Z,22.42
2019-01-30T04:32:26.423Z,23.00
2019-01-30T04:34:58.976Z,28.45
2019-01-30T04:37:31.455Z,26.70
2019-01-30T04:40:03.971Z,29.30
2019-01-30T04:42:36.407Z,26.80
2019-01-30T04:45:11.078Z,28.17
2019-01-30T04:47:43.564Z,29.82
2019-01-30T04:50:16.096Z,24.67
2019-01-30T04:52:48.958Z,25.97
2019-01-30T04:55:21.463Z,23.90
2019-01-30T04:57:53.978Z,22.95
2019-01-30T05:00:27.442Z,24.72
2019-01-30T05:02:59.943Z,23.50
2019-01-30T05:05:32.449Z,23.02
2019-01-30T05:08:04.900Z,26.20
2019-01-30T05:10:37.427Z,21.50
2019-01-30T05:13:10.163Z,26.05
2019-01-30T05:15:42.953Z,31.55
2019-01-30T05:18:15.798Z,26.15
2019-01-30T05:20:48.800Z,21.77
2019-01-30T05:23:21.608Z,24.07
2019-01-30T05:25:54.220Z,26.33
2019-01-30T05:28:26.818Z,23.50
2019-01-30T05:30:59.415Z,22.77
2019-01-30T05:33:31.894Z,23.32
2019-01-30T05:36:04.365Z,22.98
2019-01-30T05:38:36.957Z,20.88
2019-01-30T05:41:09.490Z,18.55
2019-01-30T05:43:42.560Z,23.87
2019-01-30T05:46:15.195Z,24.05
2019-01-30T05:48:47.840Z,20.50
2019-01-30T05:51:20.359Z,24.95
2019-01-30T05:53:53.013Z,21.07
2019-01-30T05:56:25.514Z,22.02
2019-01-30T05:58:58.196Z,23.87
2019-01-30T06:01:30.949Z,24.77
2019-01-30T06:04:03.482Z,26.00
2019-01-30T06:06:36.210Z,21.50
2019-01-30T06:09:09.519Z,24.85
2019-01-30T06:11:43.149Z,23.57
2019-01-30T06:14:15.571Z,24.00
2019-01-30T06:16:48.260Z,24.02
2019-01-30T06:19:21.087Z,28.23
2019-01-30T06:21:55.955Z,27.80
2019-01-30T06:24:28.609Z,28.05
2019-01-30T06:27:01.182Z,30.90
2019-01-30T06:29:33.636Z,21.20
2019-01-30T06:32:06.177Z,23.70
2019-01-30T06:34:38.727Z,31.97
2019-01-30T06:37:12.820Z,23.35
2019-01-30T06:39:45.380Z,25.65
2019-01-30T06:42:17.878Z,30.12
2019-01-30T06:44:50.520Z,25.15
2019-01-30T06:47:23.010Z,26.25
2019-01-30T06:49:55.567Z,24.65
2019-01-30T06:52:28.152Z,27.85
2019-01-30T06:55:00.682Z,26.35
2019-01-30T06:57:33.200Z,31.30
2019-01-30T07:00:05.684Z,25.45
2019-01-30T07:02:38.283Z,24.43
2019-01-30T07:05:10.767Z,24.77
2019-01-30T07:07:43.407Z,21.82
2019-01-30T07:10:18.172Z,25.55
2019-01-30T07:12:51.371Z,21.12
2019-01-30T07:15:23.964Z,28.38
2019-01-30T07:17:56.413Z,22.27
2019-01-30T07:20:31.124Z,24.20
2019-01-30T07:23:02.570Z,26.77
2019-01-30T07:25:36.815Z,29.75
2019-01-30T07:28:08.962Z,24.12
2019-01-30T07:30:41.457Z,24.60
2019-01-30T07:33:13.920Z,22.07
2019-01-30T07:35:46.553Z,26.27
2019-01-30T07:38:19.048Z,29.27
2019-01-30T07:40:53.887Z,19.17
2019-01-30T07:43:26.419Z,21.82
2019-01-30T07:45:58.915Z,25.52
2019-01-30T07:48:31.409Z,35.95
2019-01-30T07:51:03.959Z,26.42
2019-01-30T07:53:36.434Z,23.50
2019-01-30T07:56:08.910Z,24.75
2019-01-30T07:58:41.480Z,25.97
2019-01-30T08:01:17.770Z,27.27
2019-01-30T08:03:50.306Z,25.02
2019-01-30T08:06:22.820Z,28.70
2019-01-30T08:08:55.319Z,33.38
2019-01-30T08:11:27.766Z,23.52
2019-01-30T08:14:02.013Z,28.80
2019-01-30T08:16:34.057Z,27.55
2019-01-30T08:19:06.596Z,23.05
2019-01-30T08:21:39.224Z,30.20
2019-01-30T08:24:11.885Z,34.00
2019-01-30T08:26:44.403Z,21.65
2019-01-30T08:29:17.354Z,29.70
2019-01-30T08:31:50.156Z,26.30
2019-01-30T08:34:22.787Z,29.70
2019-01-30T08:36:55.294Z,31.15
2019-01-30T08:39:27.943Z,25.77
2019-01-30T08:42:00.428Z,23.80
2019-01-30T08:44:32.954Z,28.42
2019-01-30T08:47:05.393Z,26.15
2019-01-30T08:49:40.259Z,25.92
2019-01-30T08:52:12.670Z,27.73
2019-01-30T08:54:45.229Z,28.30
2019-01-30T08:57:17.781Z,27.15
2019-01-30T08:59:50.246Z,27.00
2019-01-30T09:02:22.879Z,29.42
2019-01-30T09:04:55.423Z,29.98
2019-01-30T09:07:27.923Z,29.40
2019-01-30T09:10:00.444Z,31.05
2019-01-30T09:12:32.900Z,26.87
2019-01-30T09:15:05.341Z,30.02
2019-01-30T09:17:37.872Z,30.40
2019-01-30T09:20:12.457Z,29.98
2019-01-30T09:22:46.221Z,28.38
2019-01-30T09:25:29.261Z,26.30
2019-01-30T09:28:02.543Z,33.02
2019-01-30T09:30:36.987Z,33.48
2019-01-30T09:33:10.526Z,28.83
2019-01-30T09:35:43.167Z,29.80
2019-01-30T09:38:15.623Z,31.40
2019-01-30T09:40:48.205Z,29.75
2019-01-30T09:43:20.725Z,28.40
2019-01-30T09:45:53.348Z,25.17
2019-01-30T09:48:27.205Z,29.18
2019-01-30T09:50:59.830Z,30.45
2019-01-30T09:53:32.399Z,26.17
2019-01-30T09:56:04.978Z,26.65
2019-01-30T09:58:37.487Z,25.97
2019-01-30T10:01:10.137Z,31.15
2019-01-30T10:03:42.656Z,28.05
2019-01-30T10:06:15.333Z,27.58
2019-01-30T10:08:47.936Z,29.63
2019-01-30T10:11:20.592Z,26.77
2019-01-30T10:13:53.187Z,28.65
2019-01-30T10:16:25.875Z,25.30
2019-01-30T10:18:58.638Z,25.80
2019-01-30T10:21:31.195Z,28.75
2019-01-30T10:24:03.706Z,28.90
2019-01-30T10:26:36.322Z,29.05
2019-01-30T10:29:08.892Z,29.70
2019-01-30T10:31:41.409Z,24.43
2019-01-30T10:34:14.018Z,27.60
2019-01-30T10:36:48.606Z,28.92
2019-01-30T10:39:21.245Z,32.28
2019-01-30T10:41:55.553Z,31.62
2019-01-30T10:44:27.625Z,29.00
2019-01-30T10:47:00.253Z,27.75
2019-01-30T10:49:32.771Z,22.65
2019-01-30T10:52:05.380Z,34.95
2019-01-30T10:54:37.920Z,32.23
2019-01-30T10:57:10.608Z,32.00
2019-01-30T10:59:43.161Z,37.73
2019-01-30T11:02:15.804Z,31.90
2019-01-30T11:04:48.376Z,33.15
2019-01-30T11:07:21.041Z,30.35
2019-01-30T11:09:54.619Z,28.92
2019-01-30T11:12:27.229Z,28.55
2019-01-30T11:14:59.783Z,29.07
2019-01-30T11:20:14.830Z,28.62
2019-01-30T11:22:47.444Z,35.88
2019-01-30T11:25:24.912Z,23.62
2019-01-30T11:27:57.449Z,25.10
2019-01-30T11:30:29.997Z,27.67
2019-01-30T11:33:02.590Z,28.70
2019-01-30T11:35:35.221Z,33.85
2019-01-30T11:38:09.020Z,26.10
2019-01-30T11:40:41.391Z,31.82
2019-01-30T11:43:13.842Z,28.30
2019-01-30T11:45:47.006Z,29.00
2019-01-30T11:48:19.519Z,33.90
2019-01-30T11:50:52.135Z,29.10
2019-01-30T11:53:24.634Z,32.55
2019-01-30T11:55:57.357Z,27.93
2019-01-30T11:58:29.874Z,29.67
2019-01-30T12:01:03.514Z,28.02
2019-01-30T12:03:36.143Z,29.15
2019-01-30T12:06:08.607Z,28.07
2019-01-30T12:08:41.098Z,34.58
2019-01-30T12:11:13.550Z,33.83
2019-01-30T12:13:46.103Z,38.98
2019-01-30T12:16:18.692Z,31.65
2019-01-30T12:18:52.437Z,30.45
2019-01-30T12:21:24.872Z,35.25
2019-01-30T12:23:57.386Z,30.25
2019-01-30T12:26:31.164Z,31.20
2019-01-30T12:29:03.865Z,36.68
2019-01-30T12:31:36.416Z,37.78
2019-01-30T12:34:08.880Z,37.67
2019-01-30T12:36:41.401Z,42.58
2019-01-30T12:39:13.879Z,36.00
2019-01-30T12:41:46.059Z,32.08
2019-01-30T12:44:18.748Z,30.02
2019-01-30T12:46:50.298Z,36.98
2019-01-30T12:49:22.450Z,33.45
2019-01-30T12:51:54.959Z,33.42
2019-01-30T12:54:27.427Z,30.92
2019-01-30T12:56:59.919Z,32.05
2019-01-30T12:59:32.366Z,33.35
2019-01-30T13:02:05.381Z,39.10
2019-01-30T13:04:38.767Z,32.05
2019-01-30T13:07:11.620Z,32.50
2019-01-30T13:09:44.113Z,31.77
2019-01-30T13:12:16.757Z,33.23
2019-01-30T13:14:49.274Z,28.25
2019-01-30T13:17:21.790Z,34.88
2019-01-30T13:19:55.292Z,33.18
2019-01-30T13:22:27.850Z,34.95
2019-01-30T13:25:00.426Z,34.33
2019-01-30T13:27:33.788Z,30.30
2019-01-30T13:30:07.541Z,32.05
2019-01-30T13:32:39.302Z,37.75
2019-01-30T13:35:12.244Z,25.75
2019-01-30T13:37:45.615Z,29.90
2019-01-30T13:40:26.393Z,33.75
2019-01-30T13:42:59.307Z,32.30
2019-01-30T13:45:32.108Z,33.65
2019-01-30T13:48:04.859Z,31.35
2019-01-30T13:50:37.358Z,37.48
2019-01-30T13:53:10.506Z,32.15
2019-01-30T13:55:43.136Z,30.97
2019-01-30T13:58:15.574Z,28.83
2019-01-30T14:00:48.120Z,31.45
2019-01-30T14:03:20.618Z,25.55
2019-01-30T14:05:53.579Z,29.30
2019-01-30T14:08:26.135Z,27.45
2019-01-30T14:10:58.633Z,26.30
2019-01-30T14:13:31.140Z,32.98
2019-01-30T14:16:04.619Z,30.08
2019-01-30T14:18:37.422Z,27.05
2019-01-30T14:21:09.982Z,31.05
2019-01-30T14:23:41.539Z,32.53
2019-01-30T14:26:14.064Z,28.50
2019-01-30T14:28:46.563Z,29.75
2019-01-30T14:31:19.087Z,30.12
2019-01-30T14:33:51.638Z,26.87
2019-01-30T14:36:24.179Z,32.63
2019-01-30T14:38:56.682Z,28.92
2019-01-30T14:41:29.525Z,26.75
2019-01-30T14:44:01.227Z,24.43
2019-01-30T14:46:33.744Z,31.45
2019-01-30T14:49:06.374Z,31.20
2019-01-30T14:51:38.861Z,21.93
2019-01-30T14:54:11.355Z,27.87
2019-01-30T14:56:43.908Z,28.12
2019-01-30T14:59:16.488Z,32.95
2019-01-30T15:01:48.942Z,27.52
2019-01-30T15:04:21.569Z,30.10
2019-01-30T15:06:54.030Z,23.95
2019-01-30T15:09:26.583Z,25.45
2019-01-30T15:11:59.124Z,29.40
2019-01-30T15:14:31.701Z,23.47
2019-01-30T15:17:03.195Z,31.15
2019-01-30T15:19:35.664Z,30.30
2019-01-30T15:22:08.428Z,28.07
2019-01-30T15:24:40.967Z,25.32
2019-01-30T15:27:12.433Z,21.93
2019-01-30T15:29:44.971Z,25.23
2019-01-30T15:32:17.423Z,34.10
2019-01-30T15:34:49.881Z,30.97
2019-01-30T15:37:21.423Z,34.80
2019-01-30T15:39:53.838Z,30.30
2019-01-30T15:42:26.386Z,25.43
2019-01-30T15:44:58.954Z,27.32
2019-01-30T15:47:31.438Z,23.30
2019-01-30T15:50:03.905Z,28.90
2019-01-30T15:52:36.389Z,30.10
2019-01-30T15:55:10.840Z,29.40
2019-01-30T15:57:43.286Z,32.85
2019-01-30T16:00:36.681Z,23.95
2019-01-30T16:03:09.228Z,29.85
2019-01-30T16:05:45.221Z,29.50
2019-01-30T16:08:15.368Z,27.75
2019-01-30T16:10:47.912Z,27.40
2019-01-30T16:13:20.363Z,25.70
2019-01-30T16:16:00.350Z,27.42
2019-01-30T16:18:32.845Z,24.27
2019-01-30T16:21:05.382Z,29.42
2019-01-30T16:23:38.071Z,25.70
2019-01-30T16:26:10.493Z,25.92
2019-01-30T16:28:43.051Z,25.05
2019-01-30T16:31:15.605Z,26.40
2019-01-30T16:33:48.138Z,28.65
2019-01-30T16:36:19.713Z,28.10
2019-01-30T16:38:52.207Z,30.35
2019-01-30T16:41:24.723Z,24.57
2019-01-30T16:43:57.174Z,28.73
2019-01-30T16:46:29.672Z,28.10
2019-01-30T16:49:02.083Z,26.55
2019-01-30T16:51:34.683Z,25.23
2019-01-30T16:54:07.131Z,30.12
2019-01-30T16:56:39.680Z,28.73
2019-01-30T16:59:11.218Z,25.10
2019-01-30T17:01:43.745Z,27.32
2019-01-30T17:04:16.282Z,28.42
2019-01-30T17:06:48.879Z,26.60
2019-01-30T17:09:21.346Z,28.20
2019-01-30T17:11:54.007Z,23.98
2019-01-30T17:17:09.208Z,27.67
2019-01-30T17:19:41.710Z,30.65
2019-01-30T17:22:14.239Z,23.30
2019-01-30T17:24:46.724Z,25.27
2019-01-30T17:27:20.831Z,27.27
2019-01-30T17:29:53.281Z,26.65
2019-01-30T17:32:25.757Z,32.35
2019-01-30T17:35:01.554Z,31.62
2019-01-30T17:37:34.159Z,39.50
2019-01-30T17:40:07.707Z,31.27
2019-01-30T17:42:40.203Z,30.00
2019-01-30T17:45:12.685Z,23.80
2019-01-30T17:47:47.535Z,33.25
2019-01-30T17:50:22.024Z,31.62
2019-01-30T17:52:55.534Z,28.90
2019-01-30T17:55:28.004Z,28.07
2019-01-30T17:58:00.495Z,31.45
2019-01-30T18:05:54.130Z,29.80
2019-01-30T18:08:26.568Z,29.48
2019-01-30T18:10:59.103Z,22.05
2019-01-30T18:13:31.673Z,27.60
2019-01-30T18:16:04.187Z,24.92
2019-01-30T18:18:36.735Z,26.57
2019-01-30T18:21:09.187Z,25.05
2019-01-30T18:23:41.688Z,27.85
2019-01-30T18:26:15.666Z,32.45
2019-01-30T18:28:48.201Z,32.25
2019-01-30T18:31:20.656Z,26.23
2019-01-30T18:33:54.021Z,30.97
2019-01-30T18:36:25.620Z,27.37
2019-01-30T18:38:58.127Z,34.03
2019-01-30T18:41:30.610Z,30.72
2019-01-30T18:44:02.091Z,34.95
2019-01-30T18:46:34.617Z,32.23
2019-01-30T18:49:07.144Z,34.60
2019-01-30T18:51:39.526Z,27.27
2019-01-30T18:54:12.028Z,37.00
2019-01-30T18:56:44.579Z,30.97
2019-01-30T18:59:19.709Z,30.60
2019-01-30T19:01:52.194Z,35.43
2019-01-30T19:04:25.984Z,37.70
2019-01-30T19:06:58.833Z,29.00
2019-01-30T19:09:31.397Z,30.85
2019-01-30T19:12:03.893Z,27.13
2019-01-30T19:14:36.349Z,26.82
2019-01-30T19:17:08.840Z,28.23
2019-01-30T19:19:42.397Z,27.40
2019-01-30T19:22:14.861Z,30.40
2019-01-30T19:24:47.313Z,26.75
2019-01-30T19:27:19.811Z,29.40
2019-01-30T19:29:52.310Z,28.07
2019-01-30T19:32:24.847Z,28.50
2019-01-30T19:34:57.369Z,26.37
2019-01-30T19:37:29.871Z,28.15
2019-01-30T19:40:02.411Z,27.17
2019-01-30T19:42:33.870Z,28.98
2019-01-30T19:45:07.223Z,32.28
2019-01-30T19:47:39.734Z,28.10
2019-01-30T19:50:14.677Z,28.75
2019-01-30T19:52:47.120Z,31.68
2019-01-30T19:55:20.527Z,28.77
2019-01-30T19:57:53.013Z,28.42
2019-01-30T20:00:30.428Z,25.23
2019-01-30T20:03:03.361Z,28.23
2019-01-30T20:05:35.839Z,25.88
2019-01-30T20:08:08.410Z,32.58
2019-01-30T20:10:40.935Z,35.60
2019-01-30T20:13:13.426Z,46.20
2019-01-30T20:15:45.972Z,23.35
2019-01-30T20:18:17.490Z,24.47
2019-01-30T20:20:49.090Z,26.35
2019-01-30T20:23:21.489Z,24.85
2019-01-30T20:25:53.948Z,35.80
2019-01-30T20:28:26.472Z,30.57
2019-01-30T20:31:01.229Z,39.18
2019-01-30T20:33:32.583Z,37.53
2019-01-30T20:36:05.144Z,39.85
2019-01-30T20:38:37.597Z,30.50
2019-01-30T20:41:10.144Z,29.98
2019-01-30T20:43:42.627Z,37.53
2019-01-30T20:46:15.139Z,28.87
2019-01-30T20:48:51.682Z,46.90
2019-01-30T20:51:21.186Z,40.95
2019-01-30T20:53:53.713Z,31.75
2019-01-30T20:56:26.325Z,30.45
2019-01-30T20:58:58.821Z,31.52
2019-01-30T21:01:31.397Z,37.75
2019-01-30T21:04:03.983Z,32.50
2019-01-30T21:06:36.406Z,30.45
2019-01-30T21:09:10.392Z,35.30
2019-01-30T21:11:42.894Z,33.58
2019-01-30T21:14:15.404Z,37.38
2019-01-30T21:16:48.052Z,32.05
2019-01-30T21:19:20.547Z,34.50
2019-01-30T21:21:52.962Z,25.88
2019-01-30T21:24:26.076Z,28.62
2019-01-30T21:26:58.582Z,29.35
2019-01-30T21:29:31.069Z,33.18
2019-01-30T21:32:03.564Z,32.75
2019-01-30T21:34:36.042Z,35.63
2019-01-30T21:37:08.558Z,33.25
2019-01-30T21:39:41.074Z,29.55
2019-01-30T21:42:13.590Z,24.60
2019-01-30T21:44:46.068Z,26.75
2019-01-30T21:47:18.596Z,27.15
2019-01-30T21:49:51.124Z,24.25
2019-01-30T21:52:23.644Z,20.60
2019-01-30T21:54:56.087Z,19.80
2019-01-30T21:57:28.627Z,21.40
2019-01-30T22:00:01.172Z,24.75
2019-01-30T22:02:33.693Z,19.15
2019-01-30T22:05:06.172Z,17.85
2019-01-30T22:07:39.044Z,20.77
2019-01-30T22:10:22.289Z,14.53
2019-01-30T22:12:54.568Z,14.90
2019-01-30T22:15:27.106Z,18.95
2019-01-30T22:17:59.631Z,14.78
2019-01-30T22:20:34.540Z,17.52
2019-01-30T22:23:05.775Z,14.73
2019-01-30T22:25:38.218Z,17.02
2019-01-30T22:28:10.779Z,23.20
2019-01-30T22:30:45.867Z,16.12
2019-01-30T22:33:17.403Z,20.65
2019-01-30T22:35:52.813Z,13.65
2019-01-30T22:38:26.604Z,17.25
2019-01-30T22:40:59.059Z,13.28
2019-01-30T22:43:33.680Z,11.35
2019-01-30T22:46:06.216Z,13.10
2019-01-30T22:48:38.724Z,10.05
2019-01-30T22:51:11.167Z,12.58
2019-01-30T22:53:43.693Z,11.28
2019-01-30T22:56:16.165Z,9.63
2019-01-30T22:58:48.667Z,11.95
2019-01-30T23:01:35.350Z,8.60
2019-01-30T23:04:21.686Z,10.45
2019-01-30T23:07:06.068Z,8.65
2019-01-30T23:09:55.244Z,8.73
2019-01-30T23:12:45.999Z,7.65
2019-01-30T23:15:23.202Z,9.00
2019-01-30T23:18:31.807Z,8.53
2019-01-30T23:21:12.187Z,7.55
2019-01-30T23:23:55.509Z,10.48
2019-01-30T23:26:31.033Z,7.37
2019-01-30T23:29:06.627Z,7.12
2019-01-30T23:31:47.450Z,7.95
2019-01-30T23:34:54.809Z,8.35
2019-01-30T23:37:30.341Z,9.40
2019-01-30T23:40:10.532Z,8.63
2019-01-30T23:42:50.730Z,6.15
2019-01-30T23:45:34.132Z,8.45
2019-01-30T23:48:33.858Z,5.78
2019-01-30T23:51:15.602Z,8.88
2019-01-30T23:54:06.320Z,8.60
2019-01-30T23:56:43.960Z,7.90
2019-01-30T23:59:30.751Z,11.43
